Tourist Ferry Boat 3 — IQAQ — position and weather

sailwx.info

Track history (hours):
 
Tides and Currents Weather Stations Pressure Air Temp Water Temp Dewpoint Dewpoint Depression Visibility Wind Speed Wind Dir Waves Ship Positions

Tourist Ferry Boat 3

Last reported at 2017-Oct-21 15:23 UTC. Time now 2017-Oct-23 02:57 UTC.
Position N 40°49' E 014°07'.

Length 58 m; draft 2.5 m.

Type: Ship. MMSI: 247048900.

Date/timePositionNaut miles runAvg speedWind from/ knotsBaromVisibWave heightAir tempDewpointWater temp
2017-Oct-21 15:23N 40°49' E 014°07'3 9.2
2017-Oct-21 15:01N 40°46' E 014°05'3 2.8
2017-Oct-21 13:59N 40°49' E 014°06'1 0.3
2017-Oct-21 12:14N 40°49' E 014°07'210.0
2017-Oct-21 12:00N 40°47' E 014°06'3 0.1
2017-Oct-20 14:29N 40°46' E 014°02'5 4.7
2017-Oct-20 13:25N 40°49' E 014°07'0 0.0
2017-Oct-20 12:56N 40°49' E 014°07'0 0.0
2017-Oct-20 12:30N 40°49' E 014°07'2 4.3
2017-Oct-20 12:00N 40°48' E 014°06'3 5.2
2017-Oct-20 11:22N 40°46' E 014°02'2 0.9
2017-Oct-20 08:53N 40°47' E 014°05'1 0.1
2017-Oct-19 15:09N 40°47' E 014°06'1 0.1
2017-Oct-19 06:58N 40°48' E 014°06'1 0.1
2017-Oct-18 06:00N 40°47' E 014°05'3 0.5
2017-Oct-17 23:06N 40°49' E 014°07'0 0.0
2017-Oct-17 23:00N 40°49' E 014°07'0 0.0
2017-Oct-17 22:30N 40°49' E 014°07'0 0.0
2017-Oct-17 22:00N 40°49' E 014°07'1 0.1
2017-Oct-17 15:13N 40°49' E 014°06'210.2
2017-Oct-17 14:59N 40°46' E 014°06'3 1.6
2017-Oct-17 12:58N 40°49' E 014°07'0 0.0
2017-Oct-17 12:30N 40°49' E 014°07'1 0.1
2017-Oct-17 07:06N 40°49' E 014°06'210.4
2017-Oct-17 06:54N 40°47' E 014°06'1 1.1
2017-Oct-17 05:58N 40°46' E 014°05'3 0.4
2017-Oct-16 21:33N 40°49' E 014°07'0 0.0
2017-Oct-16 21:27N 40°49' E 014°07'4 0.4
2017-Oct-16 11:09N 40°46' E 014°04'4 8.4
2017-Oct-16 10:43N 40°49' E 014°07'0 0.2
2017-Oct-16 09:58N 40°49' E 014°07'1 0.2
2017-Oct-16 07:03N 40°49' E 014°06'110.5
2017-Oct-16 06:56N 40°47' E 014°06'2 1.9
2017-Oct-16 06:02N 40°46' E 014°04'110.6
2017-Oct-16 05:58N 40°46' E 014°05'2 0.2
2017-Oct-15 15:19N 40°49' E 014°06'1 0.5
2017-Oct-15 13:28N 40°49' E 014°07'0 0.0
2017-Oct-15 12:58N 40°49' E 014°07'0 0.0
2017-Oct-15 12:22N 40°49' E 014°07'1 3.7
2017-Oct-15 12:01N 40°48' E 014°06'4 6.9
2017-Oct-15 11:24N 40°46' E 014°02'3 8.0
2017-Oct-15 10:59N 40°47' E 014°06'2 5.2
2017-Oct-15 10:30N 40°49' E 014°07'1 0.3
2017-Oct-15 07:06N 40°49' E 014°06'110.5
2017-Oct-15 06:59N 40°48' E 014°06'2 1.6
2017-Oct-15 06:05N 40°46' E 014°05'1 9.6
2017-Oct-15 05:59N 40°47' E 014°06'3 0.2
2017-Oct-14 15:21N 40°49' E 014°07'5 8.3
2017-Oct-14 14:49N 40°46' E 014°03'0 1.1
2017-Oct-14 14:30N 40°46' E 014°02'4 1.8
2017-Oct-14 12:11N 40°49' E 014°06'210.3
2017-Oct-14 11:59N 40°47' E 014°06'3 5.9
2017-Oct-14 11:26N 40°46' E 014°02'4 2.7
2017-Oct-14 09:54N 40°48' E 014°06'4 5.8
2017-Oct-14 09:13N 40°46' E 014°02'2 6.5
2017-Oct-14 08:57N 40°46' E 014°04'2 0.8
2017-Oct-14 06:57N 40°47' E 014°06'0 0.2
2017-Oct-14 05:53N 40°47' E 014°06'2 0.1
2017-Oct-13 07:12N 40°49' E 014°07'2 0.1
2017-Oct-12 14:09N 40°47' E 014°06'3 0.7
2017-Oct-12 10:23N 40°49' E 014°07'0 0.4
2017-Oct-12 10:00N 40°49' E 014°07'3 0.8
2017-Oct-12 06:00N 40°46' E 014°05'  
Track history (hours):
 
Tides and Currents Weather Stations Pressure Air Temp Water Temp Dewpoint Dewpoint Depression Visibility Wind Speed Wind Dir Waves Ship Positions

Tourist Ferry Boat 3

Last reported at 2017-Oct-21 15:23 UTC. Time now 2017-Oct-23 02:57 UTC.
Position N 40°49' E 014°07'.

Length 58 m; draft 2.5 m.

Type: Ship. MMSI: 247048900.

Date/timePositionNaut miles runAvg speedWind from/ knotsBaromVisibWave heightAir tempDewpointWater temp
2017-Oct-21 15:23N 40°49' E 014°07'3 9.2
2017-Oct-21 15:01N 40°46' E 014°05'3 2.8
2017-Oct-21 13:59N 40°49' E 014°06'1 0.3
2017-Oct-21 12:14N 40°49' E 014°07'210.0
2017-Oct-21 12:00N 40°47' E 014°06'3 0.1
2017-Oct-20 14:29N 40°46' E 014°02'5 4.7
2017-Oct-20 13:25N 40°49' E 014°07'0 0.0
2017-Oct-20 12:56N 40°49' E 014°07'0 0.0
2017-Oct-20 12:30N 40°49' E 014°07'2 4.3
2017-Oct-20 12:00N 40°48' E 014°06'3 5.2
2017-Oct-20 11:22N 40°46' E 014°02'2 0.9
2017-Oct-20 08:53N 40°47' E 014°05'1 0.1
2017-Oct-19 15:09N 40°47' E 014°06'1 0.1
2017-Oct-19 06:58N 40°48' E 014°06'1 0.1
2017-Oct-18 06:00N 40°47' E 014°05'3 0.5
2017-Oct-17 23:06N 40°49' E 014°07'0 0.0
2017-Oct-17 23:00N 40°49' E 014°07'0 0.0
2017-Oct-17 22:30N 40°49' E 014°07'0 0.0
2017-Oct-17 22:00N 40°49' E 014°07'1 0.1
2017-Oct-17 15:13N 40°49' E 014°06'210.2
2017-Oct-17 14:59N 40°46' E 014°06'3 1.6
2017-Oct-17 12:58N 40°49' E 014°07'0 0.0
2017-Oct-17 12:30N 40°49' E 014°07'1 0.1
2017-Oct-17 07:06N 40°49' E 014°06'210.4
2017-Oct-17 06:54N 40°47' E 014°06'1 1.1
2017-Oct-17 05:58N 40°46' E 014°05'3 0.4
2017-Oct-16 21:33N 40°49' E 014°07'0 0.0
2017-Oct-16 21:27N 40°49' E 014°07'4 0.4
2017-Oct-16 11:09N 40°46' E 014°04'4 8.4
2017-Oct-16 10:43N 40°49' E 014°07'0 0.2
2017-Oct-16 09:58N 40°49' E 014°07'1 0.2
2017-Oct-16 07:03N 40°49' E 014°06'110.5
2017-Oct-16 06:56N 40°47' E 014°06'2 1.9
2017-Oct-16 06:02N 40°46' E 014°04'110.6
2017-Oct-16 05:58N 40°46' E 014°05'2 0.2
2017-Oct-15 15:19N 40°49' E 014°06'1 0.5
2017-Oct-15 13:28N 40°49' E 014°07'0 0.0
2017-Oct-15 12:58N 40°49' E 014°07'0 0.0
2017-Oct-15 12:22N 40°49' E 014°07'1 3.7
2017-Oct-15 12:01N 40°48' E 014°06'4 6.9
2017-Oct-15 11:24N 40°46' E 014°02'3 8.0
2017-Oct-15 10:59N 40°47' E 014°06'2 5.2
2017-Oct-15 10:30N 40°49' E 014°07'1 0.3
2017-Oct-15 07:06N 40°49' E 014°06'110.5
2017-Oct-15 06:59N 40°48' E 014°06'2 1.6
2017-Oct-15 06:05N 40°46' E 014°05'1 9.6
2017-Oct-15 05:59N 40°47' E 014°06'3 0.2
2017-Oct-14 15:21N 40°49' E 014°07'5 8.3
2017-Oct-14 14:49N 40°46' E 014°03'0 1.1
2017-Oct-14 14:30N 40°46' E 014°02'4 1.8
2017-Oct-14 12:11N 40°49' E 014°06'210.3
2017-Oct-14 11:59N 40°47' E 014°06'3 5.9
2017-Oct-14 11:26N 40°46' E 014°02'4 2.7
2017-Oct-14 09:54N 40°48' E 014°06'4 5.8
2017-Oct-14 09:13N 40°46' E 014°02'2 6.5
2017-Oct-14 08:57N 40°46' E 014°04'2 0.8
2017-Oct-14 06:57N 40°47' E 014°06'0 0.2
2017-Oct-14 05:53N 40°47' E 014°06'2 0.1
2017-Oct-13 07:12N 40°49' E 014°07'2 0.1
2017-Oct-12 14:09N 40°47' E 014°06'3 0.7
2017-Oct-12 10:23N 40°49' E 014°07'0 0.4
2017-Oct-12 10:00N 40°49' E 014°07'3 0.8
2017-Oct-12 06:00N 40°46' E 014°05'  

Dump ship's entire track history